sensor_id;sensor_type;location;lat;lon;timestamp;temperature;humidity
42145;DHT22;27813;43.516;11.890;2022-10-16T03:22:45;10.40;92.40
42145;DHT22;27813;43.516;11.890;2022-10-16T03:26:51;10.50;92.70
42145;DHT22;27813;43.516;11.890;2022-10-16T03:30:55;10.60;92.80
42145;DHT22;27813;43.516;11.890;2022-10-16T03:35:00;10.80;92.90
42145;DHT22;27813;43.516;11.890;2022-10-16T03:39:04;10.90;92.70
42145;DHT22;27813;43.516;11.890;2022-10-16T03:43:09;11.00;92.60
42145;DHT22;27813;43.516;11.890;2022-10-16T03:47:13;10.80;92.30
42145;DHT22;27813;43.516;11.890;2022-10-16T03:51:17;10.60;92.30
42145;DHT22;27813;43.516;11.890;2022-10-16T03:55:23;10.50;92.40
42145;DHT22;27813;43.516;11.890;2022-10-16T03:59:27;10.40;92.40
42145;DHT22;27813;43.516;11.890;2022-10-16T04:03:31;10.30;92.50
42145;DHT22;27813;43.516;11.890;2022-10-16T04:07:35;10.20;92.30
42145;DHT22;27813;43.516;11.890;2022-10-16T04:11:41;10.10;92.30
42145;DHT22;27813;43.516;11.890;2022-10-16T04:15:45;10.10;92.50
42145;DHT22;27813;43.516;11.890;2022-10-16T04:19:49;10.20;92.90
42145;DHT22;27813;43.516;11.890;2022-10-16T04:23:54;10.30;92.80
42145;DHT22;27813;43.516;11.890;2022-10-16T04:27:58;10.30;92.40
42145;DHT22;27813;43.516;11.890;2022-10-16T04:32:02;10.10;92.10
42145;DHT22;27813;43.516;11.890;2022-10-16T04:36:06;10.00;91.90
42145;DHT22;27813;43.516;11.890;2022-10-16T04:40:10;9.90;92.10
42145;DHT22;27813;43.516;11.890;2022-10-16T04:44:14;9.90;92.50
42145;DHT22;27813;43.516;11.890;2022-10-16T04:48:18;9.90;92.60
42145;DHT22;27813;43.516;11.890;2022-10-16T04:52:22;9.80;92.30
42145;DHT22;27813;43.516;11.890;2022-10-16T04:56:28;9.70;92.00
42145;DHT22;27813;43.516;11.890;2022-10-16T05:00:33;9.50;91.90
42145;DHT22;27813;43.516;11.890;2022-10-16T05:04:36;9.50;92.20
42145;DHT22;27813;43.516;11.890;2022-10-16T05:08:41;9.60;92.60
42145;DHT22;27813;43.516;11.890;2022-10-16T05:12:45;9.60;92.80
42145;DHT22;27813;43.516;11.890;2022-10-16T05:16:49;9.70;92.70
42145;DHT22;27813;43.516;11.890;2022-10-16T05:20:54;9.60;92.60
42145;DHT22;27813;43.516;11.890;2022-10-16T05:24:58;9.70;92.90
42145;DHT22;27813;43.516;11.890;2022-10-16T05:29:02;9.80;93.00
42145;DHT22;27813;43.516;11.890;2022-10-16T05:33:06;9.90;92.80
42145;DHT22;27813;43.516;11.890;2022-10-16T05:37:11;9.90;92.80
42145;DHT22;27813;43.516;11.890;2022-10-16T05:41:15;9.90;92.80
42145;DHT22;27813;43.516;11.890;2022-10-16T05:45:24;9.90;92.90
42145;DHT22;27813;43.516;11.890;2022-10-16T05:49:28;9.90;92.90
42145;DHT22;27813;43.516;11.890;2022-10-16T05:53:34;9.80;92.70
42145;DHT22;27813;43.516;11.890;2022-10-16T05:57:38;9.80;92.90
42145;DHT22;27813;43.516;11.890;2022-10-16T06:01:42;9.90;93.00
42145;DHT22;27813;43.516;11.890;2022-10-16T06:05:46;9.90;92.90
42145;DHT22;27813;43.516;11.890;2022-10-16T06:09:51;9.90;92.80
42145;DHT22;27813;43.516;11.890;2022-10-16T06:13:57;9.90;92.70
42145;DHT22;27813;43.516;11.890;2022-10-16T06:18:02;9.90;92.70
42145;DHT22;27813;43.516;11.890;2022-10-16T06:22:06;10.00;92.90
42145;DHT22;27813;43.516;11.890;2022-10-16T06:26:13;10.10;92.90
42145;DHT22;27813;43.516;11.890;2022-10-16T06:30:17;10.20;92.80
42145;DHT22;27813;43.516;11.890;2022-10-16T06:34:21;10.30;92.80
42145;DHT22;27813;43.516;11.890;2022-10-16T06:38:26;10.40;92.80
42145;DHT22;27813;43.516;11.890;2022-10-16T06:42:30;10.50;92.90
42145;DHT22;27813;43.516;11.890;2022-10-16T06:46:35;10.70;92.80
42145;DHT22;27813;43.516;11.890;2022-10-16T06:50:39;10.90;92.70
42145;DHT22;27813;43.516;11.890;2022-10-16T06:54:43;11.00;92.70
42145;DHT22;27813;43.516;11.890;2022-10-16T06:58:47;11.20;92.60
42145;DHT22;27813;43.516;11.890;2022-10-16T07:02:52;11.40;92.50
42145;DHT22;27813;43.516;11.890;2022-10-16T07:06:55;11.50;92.50
42145;DHT22;27813;43.516;11.890;2022-10-16T07:11:01;11.60;92.40
42145;DHT22;27813;43.516;11.890;2022-10-16T07:15:06;11.80;92.40
42145;DHT22;27813;43.516;11.890;2022-10-16T07:19:10;11.90;92.30
42145;DHT22;27813;43.516;11.890;2022-10-16T07:23:17;12.00;92.30
42145;DHT22;27813;43.516;11.890;2022-10-16T07:27:21;12.10;92.20
42145;DHT22;27813;43.516;11.890;2022-10-16T07:31:28;12.20;92.10
42145;DHT22;27813;43.516;11.890;2022-10-16T07:35:32;12.40;91.90
42145;DHT22;27813;43.516;11.890;2022-10-16T07:39:36;12.50;91.80
42145;DHT22;27813;43.516;11.890;2022-10-16T07:43:44;12.70;91.70
42145;DHT22;27813;43.516;11.890;2022-10-16T07:47:48;12.80;91.50
42145;DHT22;27813;43.516;11.890;2022-10-16T07:51:52;12.90;91.40
42145;DHT22;27813;43.516;11.890;2022-10-16T07:56:01;13.00;91.30
42145;DHT22;27813;43.516;11.890;2022-10-16T08:00:06;13.10;91.20
42145;DHT22;27813;43.516;11.890;2022-10-16T08:04:14;13.20;91.10
42145;DHT22;27813;43.516;11.890;2022-10-16T08:08:19;13.40;90.90
42145;DHT22;27813;43.516;11.890;2022-10-16T08:12:23;13.50;90.90
42145;DHT22;27813;43.516;11.890;2022-10-16T08:16:27;13.60;90.90
42145;DHT22;27813;43.516;11.890;2022-10-16T08:20:34;13.70;90.70
42145;DHT22;27813;43.516;11.890;2022-10-16T08:24:38;13.90;90.60
42145;DHT22;27813;43.516;11.890;2022-10-16T08:28:42;14.00;90.60
42145;DHT22;27813;43.516;11.890;2022-10-16T08:32:47;14.10;90.40
42145;DHT22;27813;43.516;11.890;2022-10-16T08:36:52;14.20;90.40
42145;DHT22;27813;43.516;11.890;2022-10-16T08:45:37;14.40;90.20
42145;DHT22;27813;43.516;11.890;2022-10-16T08:50:10;14.50;90.10
42145;DHT22;27813;43.516;11.890;2022-10-16T08:54:23;14.70;90.10
42145;DHT22;27813;43.516;11.890;2022-10-16T08:58:31;14.80;89.90
42145;DHT22;27813;43.516;11.890;2022-10-16T09:02:45;14.90;89.90
42145;DHT22;27813;43.516;11.890;2022-10-16T09:11:18;15.20;89.80
42145;DHT22;27813;43.516;11.890;2022-10-16T09:15:39;15.40;89.50
42145;DHT22;27813;43.516;11.890;2022-10-16T09:20:17;15.50;89.40
42145;DHT22;27813;43.516;11.890;2022-10-16T09:24:25;15.60;89.30
42145;DHT22;27813;43.516;11.890;2022-10-16T09:28:31;15.70;89.20
42145;DHT22;27813;43.516;11.890;2022-10-16T09:32:38;15.80;89.10
42145;DHT22;27813;43.516;11.890;2022-10-16T09:36:45;15.90;89.00
42145;DHT22;27813;43.516;11.890;2022-10-16T09:41:02;16.10;88.80
42145;DHT22;27813;43.516;11.890;2022-10-16T09:45:23;16.10;88.70
42145;DHT22;27813;43.516;11.890;2022-10-16T09:49:28;16.30;88.70
42145;DHT22;27813;43.516;11.890;2022-10-16T09:53:40;16.40;88.60
42145;DHT22;27813;43.516;11.890;2022-10-16T09:57:52;16.50;88.50
42145;DHT22;27813;43.516;11.890;2022-10-16T10:02:02;16.50;88.50
42145;DHT22;27813;43.516;11.890;2022-10-16T10:06:26;16.70;88.30
42145;DHT22;27813;43.516;11.890;2022-10-16T10:10:36;16.80;88.10
42145;DHT22;27813;43.516;11.890;2022-10-16T10:14:56;16.90;87.90
42145;DHT22;27813;43.516;11.890;2022-10-16T10:19:01;17.00;87.70
42145;DHT22;27813;43.516;11.890;2022-10-16T10:23:34;17.00;87.70
42145;DHT22;27813;43.516;11.890;2022-10-16T10:32:17;17.20;87.50
42145;DHT22;27813;43.516;11.890;2022-10-16T10:37:02;17.30;87.10
42145;DHT22;27813;43.516;11.890;2022-10-16T10:45:48;17.50;86.90
42145;DHT22;27813;43.516;11.890;2022-10-16T10:55:16;17.60;86.60
42145;DHT22;27813;43.516;11.890;2022-10-16T11:03:46;17.80;86.30
42145;DHT22;27813;43.516;11.890;2022-10-16T11:08:07;17.80;86.20
42145;DHT22;27813;43.516;11.890;2022-10-16T11:12:22;17.90;86.20
42145;DHT22;27813;43.516;11.890;2022-10-16T11:16:29;17.90;86.20
42145;DHT22;27813;43.516;11.890;2022-10-16T11:20:55;18.00;86.30
42145;DHT22;27813;43.516;11.890;2022-10-16T11:25:22;18.00;86.10
42145;DHT22;27813;43.516;11.890;2022-10-16T11:29:30;18.10;85.90
42145;DHT22;27813;43.516;11.890;2022-10-16T11:33:47;18.20;85.70
42145;DHT22;27813;43.516;11.890;2022-10-16T11:37:53;18.20;85.80
42145;DHT22;27813;43.516;11.890;2022-10-16T11:46:19;18.50;85.30
42145;DHT22;27813;43.516;11.890;2022-10-16T11:50:50;18.60;85.20
42145;DHT22;27813;43.516;11.890;2022-10-16T11:55:15;18.70;85.00
42145;DHT22;27813;43.516;11.890;2022-10-16T11:59:42;18.80;84.90
42145;DHT22;27813;43.516;11.890;2022-10-16T12:08:12;19.00;84.50
42145;DHT22;27813;43.516;11.890;2022-10-16T12:16:59;19.30;84.10
42145;DHT22;27813;43.516;11.890;2022-10-16T12:21:04;19.50;83.70
42145;DHT22;27813;43.516;11.890;2022-10-16T12:29:40;19.60;83.40
42145;DHT22;27813;43.516;11.890;2022-10-16T12:33:59;19.70;83.30
42145;DHT22;27813;43.516;11.890;2022-10-16T12:46:41;20.00;82.80
42145;DHT22;27813;43.516;11.890;2022-10-16T12:50:49;20.20;82.30
42145;DHT22;27813;43.516;11.890;2022-10-16T12:54:56;20.40;81.90
42145;DHT22;27813;43.516;11.890;2022-10-16T12:59:22;20.50;81.50
42145;DHT22;27813;43.516;11.890;2022-10-16T13:08:24;20.80;80.90
42145;DHT22;27813;43.516;11.890;2022-10-16T13:21:49;21.00;79.80
42145;DHT22;27813;43.516;11.890;2022-10-16T13:26:05;21.00;79.70
42145;DHT22;27813;43.516;11.890;2022-10-16T13:30:20;21.00;79.60
42145;DHT22;27813;43.516;11.890;2022-10-16T13:34:32;21.00;79.40
42145;DHT22;27813;43.516;11.890;2022-10-16T13:38:37;21.00;79.30
42145;DHT22;27813;43.516;11.890;2022-10-16T13:42:42;21.00;79.10
42145;DHT22;27813;43.516;11.890;2022-10-16T13:46:46;20.90;78.90
42145;DHT22;27813;43.516;11.890;2022-10-16T13:51:15;20.90;78.80
42145;DHT22;27813;43.516;11.890;2022-10-16T13:55:22;20.80;78.80
42145;DHT22;27813;43.516;11.890;2022-10-16T13:59:37;20.70;78.70
42145;DHT22;27813;43.516;11.890;2022-10-16T14:03:45;20.60;78.70
42145;DHT22;27813;43.516;11.890;2022-10-16T14:07:57;20.50;78.70
42145;DHT22;27813;43.516;11.890;2022-10-16T14:12:08;20.50;78.90
42145;DHT22;27813;43.516;11.890;2022-10-16T14:16:20;20.30;79.20
42145;DHT22;27813;43.516;11.890;2022-10-16T14:20:31;20.10;79.50
42145;DHT22;27813;43.516;11.890;2022-10-16T14:24:46;20.00;79.70
42145;DHT22;27813;43.516;11.890;2022-10-16T14:29:12;19.90;80.00
42145;DHT22;27813;43.516;11.890;2022-10-16T14:33:31;19.80;80.20
42145;DHT22;27813;43.516;11.890;2022-10-16T14:37:39;19.60;80.40
42145;DHT22;27813;43.516;11.890;2022-10-16T14:41:47;19.50;80.60
42145;DHT22;27813;43.516;11.890;2022-10-16T14:45:54;19.40;80.80
42145;DHT22;27813;43.516;11.890;2022-10-16T14:49:59;19.20;81.10
42145;DHT22;27813;43.516;11.890;2022-10-16T14:54:03;19.20;81.40
42145;DHT22;27813;43.516;11.890;2022-10-16T14:58:34;19.10;81.60
42145;DHT22;27813;43.516;11.890;2022-10-16T15:02:38;19.00;81.80
42145;DHT22;27813;43.516;11.890;2022-10-16T15:06:42;18.90;82.00
42145;DHT22;27813;43.516;11.890;2022-10-16T15:10:46;18.90;82.20
42145;DHT22;27813;43.516;11.890;2022-10-16T15:14:51;18.80;82.40
42145;DHT22;27813;43.516;11.890;2022-10-16T15:18:55;18.80;82.50
42145;DHT22;27813;43.516;11.890;2022-10-16T15:23:14;18.70;82.80
42145;DHT22;27813;43.516;11.890;2022-10-16T15:27:19;18.60;83.00
42145;DHT22;27813;43.516;11.890;2022-10-16T15:31:22;18.50;83.20
42145;DHT22;27813;43.516;11.890;2022-10-16T15:35:27;18.40;83.40
42145;DHT22;27813;43.516;11.890;2022-10-16T15:39:38;18.30;83.60
42145;DHT22;27813;43.516;11.890;2022-10-16T15:43:47;18.20;83.90
42145;DHT22;27813;43.516;11.890;2022-10-16T15:48:02;18.00;84.20
42145;DHT22;27813;43.516;11.890;2022-10-16T15:52:07;17.90;84.50
42145;DHT22;27813;43.516;11.890;2022-10-16T15:56:14;17.80;84.70
42145;DHT22;27813;43.516;11.890;2022-10-16T16:00:26;17.70;85.00
42145;DHT22;27813;43.516;11.890;2022-10-16T16:04:31;17.50;85.20
42145;DHT22;27813;43.516;11.890;2022-10-16T16:08:51;17.40;85.50
42145;DHT22;27813;43.516;11.890;2022-10-16T16:12:56;17.20;85.70
42145;DHT22;27813;43.516;11.890;2022-10-16T16:17:01;17.10;86.00
42145;DHT22;27813;43.516;11.890;2022-10-16T16:21:05;17.00;86.10
42145;DHT22;27813;43.516;11.890;2022-10-16T16:25:15;16.80;86.40
42145;DHT22;27813;43.516;11.890;2022-10-16T16:29:23;16.70;86.60
42145;DHT22;27813;43.516;11.890;2022-10-16T16:33:28;16.50;86.80
42145;DHT22;27813;43.516;11.890;2022-10-16T16:37:33;16.30;87.10
42145;DHT22;27813;43.516;11.890;2022-10-16T16:41:39;16.20;87.30
42145;DHT22;27813;43.516;11.890;2022-10-16T16:45:45;16.10;87.60
42145;DHT22;27813;43.516;11.890;2022-10-16T16:49:50;15.90;87.80
42145;DHT22;27813;43.516;11.890;2022-10-16T16:53:55;15.80;88.00
42145;DHT22;27813;43.516;11.890;2022-10-16T16:58:00;15.70;88.20
42145;DHT22;27813;43.516;11.890;2022-10-16T17:02:08;15.60;88.40
42145;DHT22;27813;43.516;11.890;2022-10-16T17:06:15;15.60;88.40
42145;DHT22;27813;43.516;11.890;2022-10-16T17:10:26;15.50;88.40
42145;DHT22;27813;43.516;11.890;2022-10-16T17:14:38;15.40;88.60
42145;DHT22;27813;43.516;11.890;2022-10-16T17:18:45;15.40;88.60
42145;DHT22;27813;43.516;11.890;2022-10-16T17:22:51;15.10;88.70
42145;DHT22;27813;43.516;11.890;2022-10-16T17:26:56;15.10;89.00
42145;DHT22;27813;43.516;11.890;2022-10-16T17:31:16;15.00;89.10
42145;DHT22;27813;43.516;11.890;2022-10-16T17:35:20;15.00;89.10
42145;DHT22;27813;43.516;11.890;2022-10-16T17:39:27;15.00;89.10
42145;DHT22;27813;43.516;11.890;2022-10-16T17:43:34;14.90;89.10
42145;DHT22;27813;43.516;11.890;2022-10-16T17:47:40;14.80;89.00
42145;DHT22;27813;43.516;11.890;2022-10-16T17:51:48;14.70;89.10
42145;DHT22;27813;43.516;11.890;2022-10-16T17:55:53;14.60;89.30
42145;DHT22;27813;43.516;11.890;2022-10-16T18:00:03;14.50;89.50
42145;DHT22;27813;43.516;11.890;2022-10-16T18:04:10;14.50;89.60
42145;DHT22;27813;43.516;11.890;2022-10-16T18:08:16;14.40;89.60
42145;DHT22;27813;43.516;11.890;2022-10-16T18:12:20;14.40;89.60
42145;DHT22;27813;43.516;11.890;2022-10-16T18:16:27;14.30;89.70
42145;DHT22;27813;43.516;11.890;2022-10-16T18:20:32;14.30;89.80
42145;DHT22;27813;43.516;11.890;2022-10-16T18:24:36;14.20;89.80
42145;DHT22;27813;43.516;11.890;2022-10-16T18:28:41;14.20;89.90
42145;DHT22;27813;43.516;11.890;2022-10-16T18:32:46;14.10;89.90
42145;DHT22;27813;43.516;11.890;2022-10-16T18:36:50;14.00;89.90
42145;DHT22;27813;43.516;11.890;2022-10-16T18:40:57;14.00;90.10
42145;DHT22;27813;43.516;11.890;2022-10-16T18:45:06;13.90;90.20
42145;DHT22;27813;43.516;11.890;2022-10-16T18:49:12;13.70;90.20
42145;DHT22;27813;43.516;11.890;2022-10-16T18:53:18;13.70;90.40
42145;DHT22;27813;43.516;11.890;2022-10-16T18:57:27;13.70;90.50
42145;DHT22;27813;43.516;11.890;2022-10-16T19:01:36;13.70;90.30
42145;DHT22;27813;43.516;11.890;2022-10-16T19:05:42;13.70;90.40
42145;DHT22;27813;43.516;11.890;2022-10-16T19:09:52;13.70;90.50
42145;DHT22;27813;43.516;11.890;2022-10-16T19:13:57;13.70;90.50
42145;DHT22;27813;43.516;11.890;2022-10-16T19:18:06;13.80;90.40
42145;DHT22;27813;43.516;11.890;2022-10-16T19:22:12;13.90;90.30
42145;DHT22;27813;43.516;11.890;2022-10-16T19:26:39;13.90;90.20
42145;DHT22;27813;43.516;11.890;2022-10-16T19:30:47;13.90;90.20
42145;DHT22;27813;43.516;11.890;2022-10-16T19:34:53;13.80;90.30
42145;DHT22;27813;43.516;11.890;2022-10-16T19:39:03;13.70;90.50
42145;DHT22;27813;43.516;11.890;2022-10-16T19:43:17;13.60;90.50
42145;DHT22;27813;43.516;11.890;2022-10-16T19:47:31;13.60;90.60
42145;DHT22;27813;43.516;11.890;2022-10-16T19:51:45;13.60;90.80
42145;DHT22;27813;43.516;11.890;2022-10-16T19:55:59;13.60;90.80
42145;DHT22;27813;43.516;11.890;2022-10-16T20:00:09;13.60;90.80
42145;DHT22;27813;43.516;11.890;2022-10-16T20:04:21;13.60;90.80
42145;DHT22;27813;43.516;11.890;2022-10-16T20:08:32;13.60;90.80
42145;DHT22;27813;43.516;11.890;2022-10-16T20:12:39;13.50;90.80
42145;DHT22;27813;43.516;11.890;2022-10-16T20:16:55;13.50;90.90
42145;DHT22;27813;43.516;11.890;2022-10-16T20:21:30;13.40;90.80
42145;DHT22;27813;43.516;11.890;2022-10-16T20:25:40;13.20;91.00
42145;DHT22;27813;43.516;11.890;2022-10-16T20:29:45;13.10;91.20
42145;DHT22;27813;43.516;11.890;2022-10-16T20:33:49;13.00;91.40
42145;DHT22;27813;43.516;11.890;2022-10-16T20:37:56;13.00;91.50
42145;DHT22;27813;43.516;11.890;2022-10-16T20:42:03;13.00;91.60
42145;DHT22;27813;43.516;11.890;2022-10-16T20:46:08;13.00;91.50
42145;DHT22;27813;43.516;11.890;2022-10-16T20:50:13;13.00;91.60
42145;DHT22;27813;43.516;11.890;2022-10-16T20:54:20;13.10;91.60
42145;DHT22;27813;43.516;11.890;2022-10-16T20:58:26;13.10;91.30
42145;DHT22;27813;43.516;11.890;2022-10-16T21:02:31;13.10;91.30
42145;DHT22;27813;43.516;11.890;2022-10-16T21:06:38;13.10;91.40
42145;DHT22;27813;43.516;11.890;2022-10-16T21:10:42;13.10;91.50
42145;DHT22;27813;43.516;11.890;2022-10-16T21:14:46;13.00;91.60
42145;DHT22;27813;43.516;11.890;2022-10-16T21:19:12;13.10;91.60
42145;DHT22;27813;43.516;11.890;2022-10-16T21:23:16;13.10;91.40
42145;DHT22;27813;43.516;11.890;2022-10-16T21:27:20;13.00;91.50
42145;DHT22;27813;43.516;11.890;2022-10-16T21:31:24;13.00;91.50
42145;DHT22;27813;43.516;11.890;2022-10-16T21:35:29;13.00;91.60
42145;DHT22;27813;43.516;11.890;2022-10-16T21:39:33;13.10;91.50
42145;DHT22;27813;43.516;11.890;2022-10-16T21:43:37;13.10;91.40
42145;DHT22;27813;43.516;11.890;2022-10-16T21:47:42;13.10;91.60
42145;DHT22;27813;43.516;11.890;2022-10-16T21:51:46;13.10;91.40
42145;DHT22;27813;43.516;11.890;2022-10-16T21:55:51;13.00;91.60
42145;DHT22;27813;43.516;11.890;2022-10-16T21:59:56;13.00;91.60
42145;DHT22;27813;43.516;11.890;2022-10-16T22:04:01;13.10;91.90
42145;DHT22;27813;43.516;11.890;2022-10-16T22:08:05;13.20;91.70
42145;DHT22;27813;43.516;11.890;2022-10-16T22:12:09;13.30;91.70
42145;DHT22;27813;43.516;11.890;2022-10-16T22:16:13;13.40;91.60
42145;DHT22;27813;43.516;11.890;2022-10-16T22:20:19;13.60;91.60
42145;DHT22;27813;43.516;11.890;2022-10-16T22:24:23;13.80;91.30
42145;DHT22;27813;43.516;11.890;2022-10-16T22:28:28;13.90;91.00
42145;DHT22;27813;43.516;11.890;2022-10-16T22:32:32;13.90;90.80
42145;DHT22;27813;43.516;11.890;2022-10-16T22:36:36;13.60;90.70
42145;DHT22;27813;43.516;11.890;2022-10-16T22:40:40;13.40;91.00
42145;DHT22;27813;43.516;11.890;2022-10-16T22:44:44;13.20;91.20
42145;DHT22;27813;43.516;11.890;2022-10-16T22:48:48;13.00;91.50
42145;DHT22;27813;43.516;11.890;2022-10-16T22:52:53;12.80;91.80
42145;DHT22;27813;43.516;11.890;2022-10-16T22:56:58;12.70;92.00
42145;DHT22;27813;43.516;11.890;2022-10-16T23:01:02;12.60;92.50
42145;DHT22;27813;43.516;11.890;2022-10-16T23:05:07;12.60;92.30
42145;DHT22;27813;43.516;11.890;2022-10-16T23:09:11;12.60;92.30
42145;DHT22;27813;43.516;11.890;2022-10-16T23:13:15;12.50;92.40
42145;DHT22;27813;43.516;11.890;2022-10-16T23:17:19;12.50;92.50
42145;DHT22;27813;43.516;11.890;2022-10-16T23:21:24;12.50;92.60
42145;DHT22;27813;43.516;11.890;2022-10-16T23:25:29;12.50;92.50
42145;DHT22;27813;43.516;11.890;2022-10-16T23:29:33;12.40;92.40
